sensor_id;sensor_type;location;lat;lon;timestamp;temperature;humidity
10873;DHT22;34586;53.616;10.032;2023-12-07T00:00:32;1.90;99.90
10873;DHT22;34586;53.616;10.032;2023-12-07T00:02:57;1.90;99.90
10873;DHT22;34586;53.616;10.032;2023-12-07T00:05:24;1.90;99.90
10873;DHT22;34586;53.616;10.032;2023-12-07T00:07:50;1.90;99.90
10873;DHT22;34586;53.616;10.032;2023-12-07T00:10:16;2.00;99.90
10873;DHT22;34586;53.616;10.032;2023-12-07T00:12:41;2.00;99.90
10873;DHT22;34586;53.616;10.032;2023-12-07T00:15:07;2.00;99.90
10873;DHT22;34586;53.616;10.032;2023-12-07T00:17:33;2.00;99.90
10873;DHT22;34586;53.616;10.032;2023-12-07T00:19:58;2.00;99.90
10873;DHT22;34586;53.616;10.032;2023-12-07T00:22:25;2.10;99.90
10873;DHT22;34586;53.616;10.032;2023-12-07T00:24:51;2.10;99.90
10873;DHT22;34586;53.616;10.032;2023-12-07T00:27:17;2.00;99.90
10873;DHT22;34586;53.616;10.032;2023-12-07T00:29:43;2.10;99.90
10873;DHT22;34586;53.616;10.032;2023-12-07T00:32:09;2.00;99.90
10873;DHT22;34586;53.616;10.032;2023-12-07T00:34:34;2.00;99.90
10873;DHT22;34586;53.616;10.032;2023-12-07T00:37:00;2.00;99.90
10873;DHT22;34586;53.616;10.032;2023-12-07T00:39:25;2.00;99.90
10873;DHT22;34586;53.616;10.032;2023-12-07T00:41:51;2.10;99.90
10873;DHT22;34586;53.616;10.032;2023-12-07T00:44:18;2.10;99.90
10873;DHT22;34586;53.616;10.032;2023-12-07T00:46:43;2.10;99.90
10873;DHT22;34586;53.616;10.032;2023-12-07T00:49:09;2.10;99.90
10873;DHT22;34586;53.616;10.032;2023-12-07T00:51:35;2.00;99.90
10873;DHT22;34586;53.616;10.032;2023-12-07T00:54:01;2.00;99.90
10873;DHT22;34586;53.616;10.032;2023-12-07T00:56:26;2.00;99.90
10873;DHT22;34586;53.616;10.032;2023-12-07T00:58:52;2.00;99.90
10873;DHT22;34586;53.616;10.032;2023-12-07T01:01:18;2.00;99.90
10873;DHT22;34586;53.616;10.032;2023-12-07T01:03:43;2.00;99.90
10873;DHT22;34586;53.616;10.032;2023-12-07T01:06:09;2.00;99.90
10873;DHT22;34586;53.616;10.032;2023-12-07T01:08:37;2.00;99.90
10873;DHT22;34586;53.616;10.032;2023-12-07T01:11:06;2.00;99.90
10873;DHT22;34586;53.616;10.032;2023-12-07T01:13:31;2.10;99.90
10873;DHT22;34586;53.616;10.032;2023-12-07T01:15:57;2.10;99.90
10873;DHT22;34586;53.616;10.032;2023-12-07T01:18:22;2.10;99.90
10873;DHT22;34586;53.616;10.032;2023-12-07T01:20:48;2.00;99.90
10873;DHT22;34586;53.616;10.032;2023-12-07T01:23:14;2.00;99.90
10873;DHT22;34586;53.616;10.032;2023-12-07T01:25:40;2.00;99.90
10873;DHT22;34586;53.616;10.032;2023-12-07T01:28:05;1.90;99.90
10873;DHT22;34586;53.616;10.032;2023-12-07T01:30:31;1.90;99.90
10873;DHT22;34586;53.616;10.032;2023-12-07T01:32:57;1.90;99.90
10873;DHT22;34586;53.616;10.032;2023-12-07T01:35:22;1.90;99.90
10873;DHT22;34586;53.616;10.032;2023-12-07T01:37:48;1.90;99.90
10873;DHT22;34586;53.616;10.032;2023-12-07T01:40:13;2.00;99.90
10873;DHT22;34586;53.616;10.032;2023-12-07T01:42:42;2.00;99.90
10873;DHT22;34586;53.616;10.032;2023-12-07T01:45:14;2.00;99.90
10873;DHT22;34586;53.616;10.032;2023-12-07T01:47:40;2.00;99.90
10873;DHT22;34586;53.616;10.032;2023-12-07T01:50:06;2.00;99.90
10873;DHT22;34586;53.616;10.032;2023-12-07T01:52:35;2.00;99.90
10873;DHT22;34586;53.616;10.032;2023-12-07T01:55:02;2.00;99.90
10873;DHT22;34586;53.616;10.032;2023-12-07T01:57:28;2.00;99.90
10873;DHT22;34586;53.616;10.032;2023-12-07T01:59:54;2.00;99.90
10873;DHT22;34586;53.616;10.032;2023-12-07T02:02:20;2.00;99.90
10873;DHT22;34586;53.616;10.032;2023-12-07T02:04:46;2.00;99.90
10873;DHT22;34586;53.616;10.032;2023-12-07T02:07:11;2.00;99.90
10873;DHT22;34586;53.616;10.032;2023-12-07T02:09:37;2.10;99.90
10873;DHT22;34586;53.616;10.032;2023-12-07T02:12:03;2.10;99.90
10873;DHT22;34586;53.616;10.032;2023-12-07T02:14:29;2.10;99.90
10873;DHT22;34586;53.616;10.032;2023-12-07T02:17:03;2.00;99.90
10873;DHT22;34586;53.616;10.032;2023-12-07T02:19:52;2.10;99.90
10873;DHT22;34586;53.616;10.032;2023-12-07T02:22:35;2.00;99.90
10873;DHT22;34586;53.616;10.032;2023-12-07T02:25:10;2.00;99.90
10873;DHT22;34586;53.616;10.032;2023-12-07T02:27:37;2.00;99.90
10873;DHT22;34586;53.616;10.032;2023-12-07T02:30:04;2.00;99.90
10873;DHT22;34586;53.616;10.032;2023-12-07T02:32:29;2.00;99.90
10873;DHT22;34586;53.616;10.032;2023-12-07T02:34:55;2.00;99.90
10873;DHT22;34586;53.616;10.032;2023-12-07T02:37:21;2.00;99.90
10873;DHT22;34586;53.616;10.032;2023-12-07T02:39:50;2.10;99.90
10873;DHT22;34586;53.616;10.032;2023-12-07T02:42:16;2.10;99.90
10873;DHT22;34586;53.616;10.032;2023-12-07T02:44:43;2.10;99.90
10873;DHT22;34586;53.616;10.032;2023-12-07T02:47:09;2.10;99.90
10873;DHT22;34586;53.616;10.032;2023-12-07T02:49:34;2.20;99.90
10873;DHT22;34586;53.616;10.032;2023-12-07T02:52:00;2.20;99.90
10873;DHT22;34586;53.616;10.032;2023-12-07T02:54:25;2.20;99.90
10873;DHT22;34586;53.616;10.032;2023-12-07T02:56:51;2.20;99.90
10873;DHT22;34586;53.616;10.032;2023-12-07T02:59:17;2.10;99.90
10873;DHT22;34586;53.616;10.032;2023-12-07T03:01:42;2.20;99.90
10873;DHT22;34586;53.616;10.032;2023-12-07T03:04:08;2.20;99.90
10873;DHT22;34586;53.616;10.032;2023-12-07T03:06:33;2.20;99.90
10873;DHT22;34586;53.616;10.032;2023-12-07T03:08:59;2.10;99.90
10873;DHT22;34586;53.616;10.032;2023-12-07T03:11:24;2.20;99.90
10873;DHT22;34586;53.616;10.032;2023-12-07T03:13:50;2.20;99.90
10873;DHT22;34586;53.616;10.032;2023-12-07T03:16:15;2.20;99.90
10873;DHT22;34586;53.616;10.032;2023-12-07T03:18:41;2.20;99.90
10873;DHT22;34586;53.616;10.032;2023-12-07T03:21:07;2.20;99.90
10873;DHT22;34586;53.616;10.032;2023-12-07T03:23:32;2.30;99.90
10873;DHT22;34586;53.616;10.032;2023-12-07T03:25:58;2.20;99.90
10873;DHT22;34586;53.616;10.032;2023-12-07T03:28:23;2.20;99.90
10873;DHT22;34586;53.616;10.032;2023-12-07T03:30:49;2.20;99.90
10873;DHT22;34586;53.616;10.032;2023-12-07T03:33:14;2.20;99.90
10873;DHT22;34586;53.616;10.032;2023-12-07T03:35:40;2.20;99.90
10873;DHT22;34586;53.616;10.032;2023-12-07T03:38:06;2.20;99.90
10873;DHT22;34586;53.616;10.032;2023-12-07T03:40:32;2.20;99.90
10873;DHT22;34586;53.616;10.032;2023-12-07T03:42:57;2.20;99.90
10873;DHT22;34586;53.616;10.032;2023-12-07T03:45:23;2.20;99.90
10873;DHT22;34586;53.616;10.032;2023-12-07T03:47:49;2.20;99.90
10873;DHT22;34586;53.616;10.032;2023-12-07T03:50:15;2.20;99.90
10873;DHT22;34586;53.616;10.032;2023-12-07T03:52:40;2.10;99.90
10873;DHT22;34586;53.616;10.032;2023-12-07T03:55:06;2.20;99.90
10873;DHT22;34586;53.616;10.032;2023-12-07T03:57:32;2.20;99.90
10873;DHT22;34586;53.616;10.032;2023-12-07T03:59:57;2.20;99.90
10873;DHT22;34586;53.616;10.032;2023-12-07T04:02:23;2.20;99.90
10873;DHT22;34586;53.616;10.032;2023-12-07T04:04:49;2.20;99.90
10873;DHT22;34586;53.616;10.032;2023-12-07T04:07:15;2.20;99.90
10873;DHT22;34586;53.616;10.032;2023-12-07T04:09:40;2.20;99.90
10873;DHT22;34586;53.616;10.032;2023-12-07T04:12:06;2.20;99.90
10873;DHT22;34586;53.616;10.032;2023-12-07T04:14:32;2.20;99.90
10873;DHT22;34586;53.616;10.032;2023-12-07T04:16:57;2.20;99.90
10873;DHT22;34586;53.616;10.032;2023-12-07T04:19:23;2.20;99.90
10873;DHT22;34586;53.616;10.032;2023-12-07T04:21:48;2.20;99.90
10873;DHT22;34586;53.616;10.032;2023-12-07T04:24:14;2.20;99.90
10873;DHT22;34586;53.616;10.032;2023-12-07T04:26:40;2.20;99.90
10873;DHT22;34586;53.616;10.032;2023-12-07T04:29:05;2.20;99.90
10873;DHT22;34586;53.616;10.032;2023-12-07T04:31:31;2.20;99.90
10873;DHT22;34586;53.616;10.032;2023-12-07T04:33:56;2.30;99.90
10873;DHT22;34586;53.616;10.032;2023-12-07T04:36:22;2.30;99.90
10873;DHT22;34586;53.616;10.032;2023-12-07T04:38:48;2.30;99.90
10873;DHT22;34586;53.616;10.032;2023-12-07T04:41:13;2.30;99.90
10873;DHT22;34586;53.616;10.032;2023-12-07T04:43:39;2.30;99.90
10873;DHT22;34586;53.616;10.032;2023-12-07T04:46:04;2.30;99.90
10873;DHT22;34586;53.616;10.032;2023-12-07T04:48:30;2.30;99.90
10873;DHT22;34586;53.616;10.032;2023-12-07T04:50:56;2.30;99.90
10873;DHT22;34586;53.616;10.032;2023-12-07T04:53:22;2.30;99.90
10873;DHT22;34586;53.616;10.032;2023-12-07T04:55:47;2.40;99.90
10873;DHT22;34586;53.616;10.032;2023-12-07T04:58:15;2.40;99.90
10873;DHT22;34586;53.616;10.032;2023-12-07T05:00:41;2.40;99.90
10873;DHT22;34586;53.616;10.032;2023-12-07T05:03:06;2.40;99.90
10873;DHT22;34586;53.616;10.032;2023-12-07T05:05:32;2.30;99.90
10873;DHT22;34586;53.616;10.032;2023-12-07T05:07:58;2.40;99.90
10873;DHT22;34586;53.616;10.032;2023-12-07T05:10:24;2.30;99.90
10873;DHT22;34586;53.616;10.032;2023-12-07T05:12:50;2.40;99.90
10873;DHT22;34586;53.616;10.032;2023-12-07T05:15:16;2.40;99.90
10873;DHT22;34586;53.616;10.032;2023-12-07T05:17:41;2.30;99.90
10873;DHT22;34586;53.616;10.032;2023-12-07T05:20:08;2.30;99.90
10873;DHT22;34586;53.616;10.032;2023-12-07T05:22:33;2.40;99.90
10873;DHT22;34586;53.616;10.032;2023-12-07T05:24:59;2.40;99.90
10873;DHT22;34586;53.616;10.032;2023-12-07T05:27:24;2.40;99.90
10873;DHT22;34586;53.616;10.032;2023-12-07T05:29:50;2.40;99.90
10873;DHT22;34586;53.616;10.032;2023-12-07T05:32:16;2.40;99.90
10873;DHT22;34586;53.616;10.032;2023-12-07T05:34:41;2.40;99.90
10873;DHT22;34586;53.616;10.032;2023-12-07T05:37:07;2.30;99.90
10873;DHT22;34586;53.616;10.032;2023-12-07T05:39:33;2.40;99.90
10873;DHT22;34586;53.616;10.032;2023-12-07T05:41:58;2.40;99.90
10873;DHT22;34586;53.616;10.032;2023-12-07T05:44:24;2.40;99.90
10873;DHT22;34586;53.616;10.032;2023-12-07T05:46:50;2.40;99.90
10873;DHT22;34586;53.616;10.032;2023-12-07T05:49:16;2.40;99.90
10873;DHT22;34586;53.616;10.032;2023-12-07T05:51:41;2.40;99.90
10873;DHT22;34586;53.616;10.032;2023-12-07T05:54:07;2.40;99.90
10873;DHT22;34586;53.616;10.032;2023-12-07T05:56:33;2.40;99.90
10873;DHT22;34586;53.616;10.032;2023-12-07T05:58:58;2.40;99.90
10873;DHT22;34586;53.616;10.032;2023-12-07T06:01:24;2.40;99.90
10873;DHT22;34586;53.616;10.032;2023-12-07T06:03:50;2.40;99.90
10873;DHT22;34586;53.616;10.032;2023-12-07T06:06:15;2.50;99.90
10873;DHT22;34586;53.616;10.032;2023-12-07T06:08:41;2.50;99.90
10873;DHT22;34586;53.616;10.032;2023-12-07T06:11:07;2.50;99.90
10873;DHT22;34586;53.616;10.032;2023-12-07T06:13:32;2.50;99.90
10873;DHT22;34586;53.616;10.032;2023-12-07T06:15:59;2.40;99.90
10873;DHT22;34586;53.616;10.032;2023-12-07T06:18:25;2.40;99.90
10873;DHT22;34586;53.616;10.032;2023-12-07T06:20:50;2.40;99.90
10873;DHT22;34586;53.616;10.032;2023-12-07T06:23:16;2.40;99.90
10873;DHT22;34586;53.616;10.032;2023-12-07T06:25:41;2.40;99.90
10873;DHT22;34586;53.616;10.032;2023-12-07T06:28:07;2.50;99.90
10873;DHT22;34586;53.616;10.032;2023-12-07T06:30:33;2.60;99.90
10873;DHT22;34586;53.616;10.032;2023-12-07T06:32:58;2.50;99.90
10873;DHT22;34586;53.616;10.032;2023-12-07T06:35:24;2.50;99.90
10873;DHT22;34586;53.616;10.032;2023-12-07T06:37:50;2.50;99.90
10873;DHT22;34586;53.616;10.032;2023-12-07T06:40:15;2.60;99.90
10873;DHT22;34586;53.616;10.032;2023-12-07T06:42:41;2.50;99.90
10873;DHT22;34586;53.616;10.032;2023-12-07T06:45:08;2.50;99.90
10873;DHT22;34586;53.616;10.032;2023-12-07T06:47:37;2.50;99.90
10873;DHT22;34586;53.616;10.032;2023-12-07T06:50:04;2.50;99.90
10873;DHT22;34586;53.616;10.032;2023-12-07T06:52:30;2.50;99.90
10873;DHT22;34586;53.616;10.032;2023-12-07T06:54:55;2.40;99.90
10873;DHT22;34586;53.616;10.032;2023-12-07T06:57:21;2.40;99.90
10873;DHT22;34586;53.616;10.032;2023-12-07T06:59:46;2.50;99.90
10873;DHT22;34586;53.616;10.032;2023-12-07T07:02:13;2.50;99.90
10873;DHT22;34586;53.616;10.032;2023-12-07T07:04:38;2.50;99.90
10873;DHT22;34586;53.616;10.032;2023-12-07T07:07:04;2.50;99.90
10873;DHT22;34586;53.616;10.032;2023-12-07T07:09:30;2.50;99.90
10873;DHT22;34586;53.616;10.032;2023-12-07T07:11:55;2.50;99.90
10873;DHT22;34586;53.616;10.032;2023-12-07T07:14:21;2.50;99.90
10873;DHT22;34586;53.616;10.032;2023-12-07T07:16:46;2.50;99.90
10873;DHT22;34586;53.616;10.032;2023-12-07T07:19:13;2.50;99.90
10873;DHT22;34586;53.616;10.032;2023-12-07T07:21:39;2.50;99.90
10873;DHT22;34586;53.616;10.032;2023-12-07T07:24:04;2.50;99.90
10873;DHT22;34586;53.616;10.032;2023-12-07T07:26:30;2.50;99.90
10873;DHT22;34586;53.616;10.032;2023-12-07T07:28:55;2.50;99.90
10873;DHT22;34586;53.616;10.032;2023-12-07T07:31:21;2.60;99.90
10873;DHT22;34586;53.616;10.032;2023-12-07T07:33:46;2.50;99.90
10873;DHT22;34586;53.616;10.032;2023-12-07T07:36:13;2.60;99.90
10873;DHT22;34586;53.616;10.032;2023-12-07T07:38:40;2.60;99.90
10873;DHT22;34586;53.616;10.032;2023-12-07T07:41:06;2.50;99.90
10873;DHT22;34586;53.616;10.032;2023-12-07T07:43:31;2.50;99.90
10873;DHT22;34586;53.616;10.032;2023-12-07T07:45:59;2.60;99.90
10873;DHT22;34586;53.616;10.032;2023-12-07T07:48:25;2.60;99.90
10873;DHT22;34586;53.616;10.032;2023-12-07T07:50:51;2.60;99.90
10873;DHT22;34586;53.616;10.032;2023-12-07T07:53:17;2.60;99.90
10873;DHT22;34586;53.616;10.032;2023-12-07T07:55:42;2.60;99.90
10873;DHT22;34586;53.616;10.032;2023-12-07T07:58:08;2.60;99.90
10873;DHT22;34586;53.616;10.032;2023-12-07T08:00:34;2.70;99.90
10873;DHT22;34586;53.616;10.032;2023-12-07T08:03:00;2.70;99.90
10873;DHT22;34586;53.616;10.032;2023-12-07T08:05:25;3.20;99.90
10873;DHT22;34586;53.616;10.032;2023-12-07T08:07:51;2.70;99.90
10873;DHT22;34586;53.616;10.032;2023-12-07T08:10:17;2.70;99.90
10873;DHT22;34586;53.616;10.032;2023-12-07T08:12:43;2.70;99.90
10873;DHT22;34586;53.616;10.032;2023-12-07T08:15:09;2.70;99.90
10873;DHT22;34586;53.616;10.032;2023-12-07T08:17:39;2.80;99.90
10873;DHT22;34586;53.616;10.032;2023-12-07T08:20:06;2.80;99.90
10873;DHT22;34586;53.616;10.032;2023-12-07T08:22:32;2.70;99.90
10873;DHT22;34586;53.616;10.032;2023-12-07T08:24:58;2.80;99.90
10873;DHT22;34586;53.616;10.032;2023-12-07T08:27:25;2.80;99.90
10873;DHT22;34586;53.616;10.032;2023-12-07T08:29:51;2.80;99.90
10873;DHT22;34586;53.616;10.032;2023-12-07T08:32:16;2.80;99.90
10873;DHT22;34586;53.616;10.032;2023-12-07T08:34:44;2.80;99.90
10873;DHT22;34586;53.616;10.032;2023-12-07T08:37:10;2.90;99.90
10873;DHT22;34586;53.616;10.032;2023-12-07T08:39:35;2.90;99.90
10873;DHT22;34586;53.616;10.032;2023-12-07T08:42:01;2.90;99.90
10873;DHT22;34586;53.616;10.032;2023-12-07T08:44:27;2.90;99.90
10873;DHT22;34586;53.616;10.032;2023-12-07T08:46:52;2.90;99.90
10873;DHT22;34586;53.616;10.032;2023-12-07T08:49:18;2.90;99.90
10873;DHT22;34586;53.616;10.032;2023-12-07T08:51:44;3.00;99.90
10873;DHT22;34586;53.616;10.032;2023-12-07T08:54:10;3.00;99.90
10873;DHT22;34586;53.616;10.032;2023-12-07T08:56:36;3.10;99.90
10873;DHT22;34586;53.616;10.032;2023-12-07T08:59:02;3.10;99.90
10873;DHT22;34586;53.616;10.032;2023-12-07T09:01:27;3.20;99.90
10873;DHT22;34586;53.616;10.032;2023-12-07T09:03:53;3.20;99.90
10873;DHT22;34586;53.616;10.032;2023-12-07T09:06:19;3.20;99.90
10873;DHT22;34586;53.616;10.032;2023-12-07T09:08:44;3.30;99.90
10873;DHT22;34586;53.616;10.032;2023-12-07T09:11:10;3.30;99.90
10873;DHT22;34586;53.616;10.032;2023-12-07T09:13:37;3.30;99.90
10873;DHT22;34586;53.616;10.032;2023-12-07T09:16:02;3.30;99.90
10873;DHT22;34586;53.616;10.032;2023-12-07T09:18:29;3.20;99.90
10873;DHT22;34586;53.616;10.032;2023-12-07T09:20:54;3.20;99.90
10873;DHT22;34586;53.616;10.032;2023-12-07T09:23:20;3.10;99.90
10873;DHT22;34586;53.616;10.032;2023-12-07T09:25:46;3.10;99.90
10873;DHT22;34586;53.616;10.032;2023-12-07T09:28:11;3.10;99.90
10873;DHT22;34586;53.616;10.032;2023-12-07T09:30:37;3.10;99.90
10873;DHT22;34586;53.616;10.032;2023-12-07T09:33:03;3.10;99.90
10873;DHT22;34586;53.616;10.032;2023-12-07T09:35:29;3.10;99.90
10873;DHT22;34586;53.616;10.032;2023-12-07T09:37:55;3.10;99.90
10873;DHT22;34586;53.616;10.032;2023-12-07T09:40:22;3.10;99.90
10873;DHT22;34586;53.616;10.032;2023-12-07T09:42:48;3.20;99.90
10873;DHT22;34586;53.616;10.032;2023-12-07T09:45:15;3.20;99.90
10873;DHT22;34586;53.616;10.032;2023-12-07T09:47:42;3.30;99.90
10873;DHT22;34586;53.616;10.032;2023-12-07T09:50:09;3.40;99.90
10873;DHT22;34586;53.616;10.032;2023-12-07T09:52:35;3.40;99.90
10873;DHT22;34586;53.616;10.032;2023-12-07T09:55:02;3.50;99.90
10873;DHT22;34586;53.616;10.032;2023-12-07T09:57:28;3.50;99.90
10873;DHT22;34586;53.616;10.032;2023-12-07T09:59:55;3.50;99.90
10873;DHT22;34586;53.616;10.032;2023-12-07T10:02:21;3.50;99.90
10873;DHT22;34586;53.616;10.032;2023-12-07T10:04:47;3.50;99.90
10873;DHT22;34586;53.616;10.032;2023-12-07T10:07:13;3.50;99.90
10873;DHT22;34586;53.616;10.032;2023-12-07T10:09:40;3.60;99.90
10873;DHT22;34586;53.616;10.032;2023-12-07T10:12:08;3.70;99.90
10873;DHT22;34586;53.616;10.032;2023-12-07T10:14:33;3.70;99.90
10873;DHT22;34586;53.616;10.032;2023-12-07T10:17:00;3.80;99.90
10873;DHT22;34586;53.616;10.032;2023-12-07T10:19:26;3.90;99.90
10873;DHT22;34586;53.616;10.032;2023-12-07T10:21:53;3.90;99.90
10873;DHT22;34586;53.616;10.032;2023-12-07T10:24:20;3.90;99.90
10873;DHT22;34586;53.616;10.032;2023-12-07T10:26:47;3.90;99.90
10873;DHT22;34586;53.616;10.032;2023-12-07T10:29:13;3.90;99.90
10873;DHT22;34586;53.616;10.032;2023-12-07T10:31:39;3.90;99.90
10873;DHT22;34586;53.616;10.032;2023-12-07T10:34:07;4.00;99.90
10873;DHT22;34586;53.616;10.032;2023-12-07T10:36:32;4.00;99.90
10873;DHT22;34586;53.616;10.032;2023-12-07T10:38:58;4.00;99.90
10873;DHT22;34586;53.616;10.032;2023-12-07T10:41:24;4.00;99.90
10873;DHT22;34586;53.616;10.032;2023-12-07T10:44:00;4.00;99.90
10873;DHT22;34586;53.616;10.032;2023-12-07T10:46:26;4.00;99.90
10873;DHT22;34586;53.616;10.032;2023-12-07T10:49:00;4.00;99.90
10873;DHT22;34586;53.616;10.032;2023-12-07T10:51:41;4.00;99.90
10873;DHT22;34586;53.616;10.032;2023-12-07T10:54:07;4.00;99.90
10873;DHT22;34586;53.616;10.032;2023-12-07T10:56:43;4.00;99.90
10873;DHT22;34586;53.616;10.032;2023-12-07T10:59:10;3.90;99.90
10873;DHT22;34586;53.616;10.032;2023-12-07T11:01:41;3.80;99.90
10873;DHT22;34586;53.616;10.032;2023-12-07T11:04:13;3.80;99.90
10873;DHT22;34586;53.616;10.032;2023-12-07T11:06:40;3.70;99.90
10873;DHT22;34586;53.616;10.032;2023-12-07T11:09:15;3.70;99.90
10873;DHT22;34586;53.616;10.032;2023-12-07T11:11:47;3.80;99.90
10873;DHT22;34586;53.616;10.032;2023-12-07T11:14:15;3.90;99.90
10873;DHT22;34586;53.616;10.032;2023-12-07T11:16:43;3.80;99.90
10873;DHT22;34586;53.616;10.032;2023-12-07T11:21:55;3.70;99.90
10873;DHT22;34586;53.616;10.032;2023-12-07T11:24:23;3.80;99.90
10873;DHT22;34586;53.616;10.032;2023-12-07T11:26:51;3.80;99.90
10873;DHT22;34586;53.616;10.032;2023-12-07T11:29:20;3.80;99.90
10873;DHT22;34586;53.616;10.032;2023-12-07T11:31:46;3.70;99.90
10873;DHT22;34586;53.616;10.032;2023-12-07T11:34:12;3.80;99.90
10873;DHT22;34586;53.616;10.032;2023-12-07T11:36:40;3.80;99.90
10873;DHT22;34586;53.616;10.032;2023-12-07T11:41:46;3.80;99.90
10873;DHT22;34586;53.616;10.032;2023-12-07T11:44:14;3.80;99.90
10873;DHT22;34586;53.616;10.032;2023-12-07T11:46:42;3.80;99.90
10873;DHT22;34586;53.616;10.032;2023-12-07T11:49:08;3.80;99.90
10873;DHT22;34586;53.616;10.032;2023-12-07T11:51:36;3.80;99.90
10873;DHT22;34586;53.616;10.032;2023-12-07T11:54:02;3.80;99.90
10873;DHT22;34586;53.616;10.032;2023-12-07T11:56:28;3.80;99.90
10873;DHT22;34586;53.616;10.032;2023-12-07T11:58:53;3.80;99.90
10873;DHT22;34586;53.616;10.032;2023-12-07T12:01:21;4.00;99.90
10873;DHT22;34586;53.616;10.032;2023-12-07T12:03:47;3.80;99.90
10873;DHT22;34586;53.616;10.032;2023-12-07T12:06:12;3.80;99.90
10873;DHT22;34586;53.616;10.032;2023-12-07T12:08:40;3.80;99.90
10873;DHT22;34586;53.616;10.032;2023-12-07T12:11:06;3.80;99.90
10873;DHT22;34586;53.616;10.032;2023-12-07T12:13:36;3.90;99.90
10873;DHT22;34586;53.616;10.032;2023-12-07T12:16:03;3.90;99.90
10873;DHT22;34586;53.616;10.032;2023-12-07T12:18:29;3.90;99.90
10873;DHT22;34586;53.616;10.032;2023-12-07T12:20:55;3.90;99.90
10873;DHT22;34586;53.616;10.032;2023-12-07T12:23:21;3.90;99.90
10873;DHT22;34586;53.616;10.032;2023-12-07T12:25:47;3.90;99.90
10873;DHT22;34586;53.616;10.032;2023-12-07T12:28:16;3.90;99.90
10873;DHT22;34586;53.616;10.032;2023-12-07T12:30:44;4.00;99.90
10873;DHT22;34586;53.616;10.032;2023-12-07T12:33:09;4.00;99.90
10873;DHT22;34586;53.616;10.032;2023-12-07T12:35:35;4.00;99.90
10873;DHT22;34586;53.616;10.032;2023-12-07T12:38:01;4.00;99.90
10873;DHT22;34586;53.616;10.032;2023-12-07T12:40:27;4.00;99.90
10873;DHT22;34586;53.616;10.032;2023-12-07T12:42:55;4.00;99.90
10873;DHT22;34586;53.616;10.032;2023-12-07T12:45:20;4.10;99.90
10873;DHT22;34586;53.616;10.032;2023-12-07T12:47:47;4.10;99.90
10873;DHT22;34586;53.616;10.032;2023-12-07T12:50:36;4.10;99.90
10873;DHT22;34586;53.616;10.032;2023-12-07T12:53:03;4.10;99.90
10873;DHT22;34586;53.616;10.032;2023-12-07T12:55:38;4.10;99.90
10873;DHT22;34586;53.616;10.032;2023-12-07T12:58:06;3.90;99.90
10873;DHT22;34586;53.616;10.032;2023-12-07T13:00:33;4.10;99.90
10873;DHT22;34586;53.616;10.032;2023-12-07T13:03:00;4.10;99.90
10873;DHT22;34586;53.616;10.032;2023-12-07T13:05:27;4.10;99.90
10873;DHT22;34586;53.616;10.032;2023-12-07T13:07:53;4.00;99.90
10873;DHT22;34586;53.616;10.032;2023-12-07T13:10:18;3.90;99.90
10873;DHT22;34586;53.616;10.032;2023-12-07T13:12:44;3.80;99.90
10873;DHT22;34586;53.616;10.032;2023-12-07T13:15:11;3.80;99.90
10873;DHT22;34586;53.616;10.032;2023-12-07T13:17:38;3.80;99.90
10873;DHT22;34586;53.616;10.032;2023-12-07T13:20:08;3.70;99.90
10873;DHT22;34586;53.616;10.032;2023-12-07T13:22:44;3.70;99.90
10873;DHT22;34586;53.616;10.032;2023-12-07T13:25:11;3.70;99.90
10873;DHT22;34586;53.616;10.032;2023-12-07T13:27:37;3.70;99.90
10873;DHT22;34586;53.616;10.032;2023-12-07T13:30:04;3.70;99.90
10873;DHT22;34586;53.616;10.032;2023-12-07T13:32:33;3.70;99.90
10873;DHT22;34586;53.616;10.032;2023-12-07T13:35:00;3.70;99.90
10873;DHT22;34586;53.616;10.032;2023-12-07T13:37:25;3.70;99.90
10873;DHT22;34586;53.616;10.032;2023-12-07T13:39:51;3.70;99.90
10873;DHT22;34586;53.616;10.032;2023-12-07T13:42:23;3.70;99.90
10873;DHT22;34586;53.616;10.032;2023-12-07T13:44:53;3.70;99.90
10873;DHT22;34586;53.616;10.032;2023-12-07T13:47:18;3.70;99.90
10873;DHT22;34586;53.616;10.032;2023-12-07T13:49:45;3.70;99.90
10873;DHT22;34586;53.616;10.032;2023-12-07T13:52:11;4.70;99.90
10873;DHT22;34586;53.616;10.032;2023-12-07T13:54:36;3.70;99.90
10873;DHT22;34586;53.616;10.032;2023-12-07T13:57:02;3.80;99.90
10873;DHT22;34586;53.616;10.032;2023-12-07T13:59:29;3.80;99.90
10873;DHT22;34586;53.616;10.032;2023-12-07T14:01:54;5.10;99.90
10873;DHT22;34586;53.616;10.032;2023-12-07T14:04:21;3.70;99.90
10873;DHT22;34586;53.616;10.032;2023-12-07T14:06:46;3.80;99.90
10873;DHT22;34586;53.616;10.032;2023-12-07T14:09:12;3.70;99.90
10873;DHT22;34586;53.616;10.032;2023-12-07T14:11:37;3.70;99.90
10873;DHT22;34586;53.616;10.032;2023-12-07T14:14:05;3.70;99.90
10873;DHT22;34586;53.616;10.032;2023-12-07T14:16:30;3.60;99.90
10873;DHT22;34586;53.616;10.032;2023-12-07T14:18:56;3.60;99.90
10873;DHT22;34586;53.616;10.032;2023-12-07T14:21:21;3.60;99.90
10873;DHT22;34586;53.616;10.032;2023-12-07T14:23:48;3.50;99.90
10873;DHT22;34586;53.616;10.032;2023-12-07T14:26:13;3.50;99.90
10873;DHT22;34586;53.616;10.032;2023-12-07T14:28:39;3.40;99.90
10873;DHT22;34586;53.616;10.032;2023-12-07T14:31:05;3.30;99.90
10873;DHT22;34586;53.616;10.032;2023-12-07T14:33:32;3.40;99.90
10873;DHT22;34586;53.616;10.032;2023-12-07T14:35:57;3.30;99.90
10873;DHT22;34586;53.616;10.032;2023-12-07T14:38:23;3.20;99.90
10873;DHT22;34586;53.616;10.032;2023-12-07T14:40:49;3.20;99.90
10873;DHT22;34586;53.616;10.032;2023-12-07T14:43:15;3.20;99.90
10873;DHT22;34586;53.616;10.032;2023-12-07T14:45:40;3.20;99.90
10873;DHT22;34586;53.616;10.032;2023-12-07T14:48:06;3.20;99.90
10873;DHT22;34586;53.616;10.032;2023-12-07T14:50:32;3.10;99.90
10873;DHT22;34586;53.616;10.032;2023-12-07T14:52:58;3.30;99.90
10873;DHT22;34586;53.616;10.032;2023-12-07T14:55:23;3.30;99.90
10873;DHT22;34586;53.616;10.032;2023-12-07T14:57:49;3.20;99.90
10873;DHT22;34586;53.616;10.032;2023-12-07T15:00:16;3.20;99.90
10873;DHT22;34586;53.616;10.032;2023-12-07T15:02:43;3.20;99.90
10873;DHT22;34586;53.616;10.032;2023-12-07T15:05:09;3.20;99.90
10873;DHT22;34586;53.616;10.032;2023-12-07T15:07:35;3.20;99.90
10873;DHT22;34586;53.616;10.032;2023-12-07T15:10:00;3.20;99.90
10873;DHT22;34586;53.616;10.032;2023-12-07T15:12:26;3.10;99.90
10873;DHT22;34586;53.616;10.032;2023-12-07T15:14:52;3.20;99.90
10873;DHT22;34586;53.616;10.032;2023-12-07T15:17:17;3.10;99.90
10873;DHT22;34586;53.616;10.032;2023-12-07T15:19:43;3.10;99.90
10873;DHT22;34586;53.616;10.032;2023-12-07T15:22:09;3.10;99.90
10873;DHT22;34586;53.616;10.032;2023-12-07T15:24:35;3.10;99.90
10873;DHT22;34586;53.616;10.032;2023-12-07T15:27:01;3.20;99.90
10873;DHT22;34586;53.616;10.032;2023-12-07T15:29:26;3.10;99.90